sensor_id;sensor_type;location;lat;lon;timestamp;P1;durP1;ratioP1;P2;durP2;ratioP2
70588;SDS011;58152;49.202;18.744;2023-01-16T00:01:58;8.52;;;6.43;;
70588;SDS011;58152;49.202;18.744;2023-01-16T00:04:23;7.03;;;6.28;;
70588;SDS011;58152;49.202;18.744;2023-01-16T00:06:49;6.63;;;5.65;;
70588;SDS011;58152;49.202;18.744;2023-01-16T00:09:14;8.20;;;6.82;;
70588;SDS011;58152;49.202;18.744;2023-01-16T00:11:40;8.50;;;6.68;;
70588;SDS011;58152;49.202;18.744;2023-01-16T00:14:05;7.85;;;6.95;;
70588;SDS011;58152;49.202;18.744;2023-01-16T00:16:31;9.43;;;6.80;;
70588;SDS011;58152;49.202;18.744;2023-01-16T00:18:57;8.68;;;6.88;;
70588;SDS011;58152;49.202;18.744;2023-01-16T00:21:23;8.25;;;6.85;;
70588;SDS011;58152;49.202;18.744;2023-01-16T00:23:51;9.48;;;7.97;;
70588;SDS011;58152;49.202;18.744;2023-01-16T00:26:24;9.45;;;7.20;;
70588;SDS011;58152;49.202;18.744;2023-01-16T00:28:50;7.38;;;6.22;;
70588;SDS011;58152;49.202;18.744;2023-01-16T00:31:15;8.57;;;7.15;;
70588;SDS011;58152;49.202;18.744;2023-01-16T00:33:41;10.90;;;8.02;;
70588;SDS011;58152;49.202;18.744;2023-01-16T00:36:08;9.00;;;7.97;;
70588;SDS011;58152;49.202;18.744;2023-01-16T00:38:34;10.25;;;8.15;;
70588;SDS011;58152;49.202;18.744;2023-01-16T00:41:00;10.15;;;7.78;;
70588;SDS011;58152;49.202;18.744;2023-01-16T00:43:26;10.00;;;8.50;;
70588;SDS011;58152;49.202;18.744;2023-01-16T00:45:51;10.05;;;8.70;;
70588;SDS011;58152;49.202;18.744;2023-01-16T00:48:16;11.05;;;7.50;;
70588;SDS011;58152;49.202;18.744;2023-01-16T00:50:42;9.32;;;7.90;;
70588;SDS011;58152;49.202;18.744;2023-01-16T00:53:07;10.20;;;8.07;;
70588;SDS011;58152;49.202;18.744;2023-01-16T00:55:33;8.32;;;7.43;;
70588;SDS011;58152;49.202;18.744;2023-01-16T00:58:01;8.77;;;7.10;;
70588;SDS011;58152;49.202;18.744;2023-01-16T01:00:28;10.13;;;7.43;;
70588;SDS011;58152;49.202;18.744;2023-01-16T01:02:53;9.93;;;8.05;;
70588;SDS011;58152;49.202;18.744;2023-01-16T01:05:18;10.70;;;8.00;;
70588;SDS011;58152;49.202;18.744;2023-01-16T01:07:44;13.38;;;9.75;;
70588;SDS011;58152;49.202;18.744;2023-01-16T01:10:10;14.02;;;9.98;;
70588;SDS011;58152;49.202;18.744;2023-01-16T01:12:35;13.50;;;10.07;;
70588;SDS011;58152;49.202;18.744;2023-01-16T01:15:01;14.50;;;10.38;;
70588;SDS011;58152;49.202;18.744;2023-01-16T01:17:27;12.60;;;10.68;;
70588;SDS011;58152;49.202;18.744;2023-01-16T01:19:52;15.52;;;11.13;;
70588;SDS011;58152;49.202;18.744;2023-01-16T01:22:18;14.65;;;10.98;;
70588;SDS011;58152;49.202;18.744;2023-01-16T01:24:46;15.75;;;11.98;;
70588;SDS011;58152;49.202;18.744;2023-01-16T01:27:13;15.38;;;10.80;;
70588;SDS011;58152;49.202;18.744;2023-01-16T01:29:39;13.55;;;9.52;;
70588;SDS011;58152;49.202;18.744;2023-01-16T01:32:04;13.10;;;9.30;;
70588;SDS011;58152;49.202;18.744;2023-01-16T01:34:31;14.30;;;10.40;;
70588;SDS011;58152;49.202;18.744;2023-01-16T01:36:59;14.13;;;10.52;;
70588;SDS011;58152;49.202;18.744;2023-01-16T01:39:29;13.68;;;9.85;;
70588;SDS011;58152;49.202;18.744;2023-01-16T01:41:54;12.95;;;9.63;;
70588;SDS011;58152;49.202;18.744;2023-01-16T01:47:32;11.45;;;8.70;;
70588;SDS011;58152;49.202;18.744;2023-01-16T01:50:03;12.25;;;9.30;;
70588;SDS011;58152;49.202;18.744;2023-01-16T01:52:37;10.98;;;8.85;;
70588;SDS011;58152;49.202;18.744;2023-01-16T01:55:05;12.30;;;9.73;;
70588;SDS011;58152;49.202;18.744;2023-01-16T01:57:40;13.85;;;9.30;;
70588;SDS011;58152;49.202;18.744;2023-01-16T02:02:36;14.23;;;10.10;;
70588;SDS011;58152;49.202;18.744;2023-01-16T02:05:07;11.10;;;8.77;;
70588;SDS011;58152;49.202;18.744;2023-01-16T02:07:35;10.70;;;8.38;;
70588;SDS011;58152;49.202;18.744;2023-01-16T02:10:47;14.10;;;10.10;;
70588;SDS011;58152;49.202;18.744;2023-01-16T02:13:08;11.35;;;9.45;;
70588;SDS011;58152;49.202;18.744;2023-01-16T02:15:37;12.30;;;9.15;;
70588;SDS011;58152;49.202;18.744;2023-01-16T02:18:23;11.20;;;9.18;;
70588;SDS011;58152;49.202;18.744;2023-01-16T02:24:05;11.95;;;9.05;;
70588;SDS011;58152;49.202;18.744;2023-01-16T02:32:46;14.23;;;9.90;;
70588;SDS011;58152;49.202;18.744;2023-01-16T02:40:31;12.00;;;9.27;;
70588;SDS011;58152;49.202;18.744;2023-01-16T02:43:34;12.50;;;9.00;;
70588;SDS011;58152;49.202;18.744;2023-01-16T02:48:55;12.93;;;9.13;;
70588;SDS011;58152;49.202;18.744;2023-01-16T02:52:28;13.13;;;9.48;;
70588;SDS011;58152;49.202;18.744;2023-01-16T02:54:27;13.07;;;10.07;;
70588;SDS011;58152;49.202;18.744;2023-01-16T02:59:31;12.75;;;9.93;;
70588;SDS011;58152;49.202;18.744;2023-01-16T03:01:57;12.95;;;9.48;;
70588;SDS011;58152;49.202;18.744;2023-01-16T03:07:03;13.15;;;9.27;;
70588;SDS011;58152;49.202;18.744;2023-01-16T03:09:44;14.68;;;10.38;;
70588;SDS011;58152;49.202;18.744;2023-01-16T03:12:20;12.90;;;10.20;;
70588;SDS011;58152;49.202;18.744;2023-01-16T03:15:12;15.23;;;9.65;;
70588;SDS011;58152;49.202;18.744;2023-01-16T03:23:25;13.70;;;10.05;;
70588;SDS011;58152;49.202;18.744;2023-01-16T03:26:01;15.10;;;11.32;;
70588;SDS011;58152;49.202;18.744;2023-01-16T03:31:18;14.65;;;10.60;;
70588;SDS011;58152;49.202;18.744;2023-01-16T03:37:13;14.10;;;10.10;;
70588;SDS011;58152;49.202;18.744;2023-01-16T03:39:54;13.90;;;10.25;;
70588;SDS011;58152;49.202;18.744;2023-01-16T03:42:24;14.18;;;9.35;;
70588;SDS011;58152;49.202;18.744;2023-01-16T03:44:58;12.43;;;9.35;;
70588;SDS011;58152;49.202;18.744;2023-01-16T03:47:34;13.30;;;10.43;;
70588;SDS011;58152;49.202;18.744;2023-01-16T03:50:07;13.90;;;10.23;;
70588;SDS011;58152;49.202;18.744;2023-01-16T03:52:36;13.75;;;10.00;;
70588;SDS011;58152;49.202;18.744;2023-01-16T03:57:37;15.50;;;10.73;;
70588;SDS011;58152;49.202;18.744;2023-01-16T04:00:09;16.52;;;10.68;;
70588;SDS011;58152;49.202;18.744;2023-01-16T04:02:39;18.10;;;11.70;;
70588;SDS011;58152;49.202;18.744;2023-01-16T04:05:18;15.63;;;10.75;;
70588;SDS011;58152;49.202;18.744;2023-01-16T04:08:07;15.55;;;11.07;;
70588;SDS011;58152;49.202;18.744;2023-01-16T04:10:38;14.68;;;10.30;;
70588;SDS011;58152;49.202;18.744;2023-01-16T04:13:13;12.35;;;9.55;;
70588;SDS011;58152;49.202;18.744;2023-01-16T04:15:46;14.65;;;10.65;;
70588;SDS011;58152;49.202;18.744;2023-01-16T04:18:15;12.35;;;9.73;;
70588;SDS011;58152;49.202;18.744;2023-01-16T04:20:42;15.30;;;10.82;;
70588;SDS011;58152;49.202;18.744;2023-01-16T04:23:11;16.30;;;10.65;;
70588;SDS011;58152;49.202;18.744;2023-01-16T04:25:37;14.23;;;11.23;;
70588;SDS011;58152;49.202;18.744;2023-01-16T04:28:03;14.68;;;10.75;;
70588;SDS011;58152;49.202;18.744;2023-01-16T04:30:29;15.05;;;10.95;;
70588;SDS011;58152;49.202;18.744;2023-01-16T04:32:54;16.55;;;10.60;;
70588;SDS011;58152;49.202;18.744;2023-01-16T04:35:19;13.57;;;10.88;;
70588;SDS011;58152;49.202;18.744;2023-01-16T04:37:46;16.90;;;11.07;;
70588;SDS011;58152;49.202;18.744;2023-01-16T04:40:11;17.73;;;11.88;;
70588;SDS011;58152;49.202;18.744;2023-01-16T04:42:37;16.88;;;11.98;;
70588;SDS011;58152;49.202;18.744;2023-01-16T04:45:03;14.25;;;10.20;;
70588;SDS011;58152;49.202;18.744;2023-01-16T04:47:28;15.15;;;11.02;;
70588;SDS011;58152;49.202;18.744;2023-01-16T04:49:54;14.65;;;10.48;;
70588;SDS011;58152;49.202;18.744;2023-01-16T04:52:19;14.93;;;10.85;;
70588;SDS011;58152;49.202;18.744;2023-01-16T04:54:45;14.48;;;10.80;;
70588;SDS011;58152;49.202;18.744;2023-01-16T04:57:10;16.60;;;11.18;;
70588;SDS011;58152;49.202;18.744;2023-01-16T04:59:36;15.57;;;12.35;;
70588;SDS011;58152;49.202;18.744;2023-01-16T05:02:01;17.00;;;12.43;;
70588;SDS011;58152;49.202;18.744;2023-01-16T05:04:27;20.35;;;14.07;;
70588;SDS011;58152;49.202;18.744;2023-01-16T05:06:52;16.98;;;11.57;;
70588;SDS011;58152;49.202;18.744;2023-01-16T05:09:18;17.27;;;12.25;;
70588;SDS011;58152;49.202;18.744;2023-01-16T05:11:43;16.83;;;12.43;;
70588;SDS011;58152;49.202;18.744;2023-01-16T05:14:09;18.40;;;13.38;;
70588;SDS011;58152;49.202;18.744;2023-01-16T05:16:35;16.40;;;13.30;;
70588;SDS011;58152;49.202;18.744;2023-01-16T05:19:02;15.30;;;11.68;;
70588;SDS011;58152;49.202;18.744;2023-01-16T05:21:28;15.55;;;11.55;;
70588;SDS011;58152;49.202;18.744;2023-01-16T05:23:53;16.73;;;11.65;;
70588;SDS011;58152;49.202;18.744;2023-01-16T05:26:19;16.45;;;11.88;;
70588;SDS011;58152;49.202;18.744;2023-01-16T05:28:44;17.48;;;12.25;;
70588;SDS011;58152;49.202;18.744;2023-01-16T05:31:10;17.75;;;13.45;;
70588;SDS011;58152;49.202;18.744;2023-01-16T05:33:35;16.17;;;12.13;;
70588;SDS011;58152;49.202;18.744;2023-01-16T05:36:01;15.80;;;10.95;;
70588;SDS011;58152;49.202;18.744;2023-01-16T05:38:26;15.02;;;11.35;;
70588;SDS011;58152;49.202;18.744;2023-01-16T05:40:52;18.15;;;12.52;;
70588;SDS011;58152;49.202;18.744;2023-01-16T05:43:18;18.45;;;13.93;;
70588;SDS011;58152;49.202;18.744;2023-01-16T05:45:43;19.08;;;13.60;;
70588;SDS011;58152;49.202;18.744;2023-01-16T05:48:09;17.60;;;12.63;;
70588;SDS011;58152;49.202;18.744;2023-01-16T05:50:34;16.08;;;11.60;;
70588;SDS011;58152;49.202;18.744;2023-01-16T05:53:00;18.75;;;13.13;;
70588;SDS011;58152;49.202;18.744;2023-01-16T05:55:25;18.00;;;12.85;;
70588;SDS011;58152;49.202;18.744;2023-01-16T05:57:51;17.55;;;11.93;;
70588;SDS011;58152;49.202;18.744;2023-01-16T06:00:16;19.98;;;14.57;;
70588;SDS011;58152;49.202;18.744;2023-01-16T06:02:42;17.00;;;12.55;;
70588;SDS011;58152;49.202;18.744;2023-01-16T06:05:08;18.02;;;12.77;;
70588;SDS011;58152;49.202;18.744;2023-01-16T06:07:34;19.02;;;14.27;;
70588;SDS011;58152;49.202;18.744;2023-01-16T06:09:59;18.73;;;13.60;;
70588;SDS011;58152;49.202;18.744;2023-01-16T06:12:25;19.00;;;13.27;;
70588;SDS011;58152;49.202;18.744;2023-01-16T06:14:50;20.42;;;14.93;;
70588;SDS011;58152;49.202;18.744;2023-01-16T06:17:16;20.30;;;13.90;;
70588;SDS011;58152;49.202;18.744;2023-01-16T06:19:43;20.15;;;13.90;;
70588;SDS011;58152;49.202;18.744;2023-01-16T06:22:09;22.65;;;14.13;;
70588;SDS011;58152;49.202;18.744;2023-01-16T06:24:35;21.95;;;14.63;;
70588;SDS011;58152;49.202;18.744;2023-01-16T06:27:00;22.88;;;15.85;;
70588;SDS011;58152;49.202;18.744;2023-01-16T06:29:26;21.15;;;14.30;;
70588;SDS011;58152;49.202;18.744;2023-01-16T06:31:52;20.38;;;14.40;;
70588;SDS011;58152;49.202;18.744;2023-01-16T06:34:17;20.15;;;13.73;;
70588;SDS011;58152;49.202;18.744;2023-01-16T06:36:43;19.08;;;13.35;;
70588;SDS011;58152;49.202;18.744;2023-01-16T06:39:11;20.25;;;12.38;;
70588;SDS011;58152;49.202;18.744;2023-01-16T06:41:36;20.27;;;14.80;;
70588;SDS011;58152;49.202;18.744;2023-01-16T06:44:02;24.00;;;14.73;;
70588;SDS011;58152;49.202;18.744;2023-01-16T06:46:28;25.23;;;15.48;;
70588;SDS011;58152;49.202;18.744;2023-01-16T06:48:53;21.60;;;13.77;;
70588;SDS011;58152;49.202;18.744;2023-01-16T06:51:19;23.52;;;15.48;;
70588;SDS011;58152;49.202;18.744;2023-01-16T06:53:44;20.52;;;13.65;;
70588;SDS011;58152;49.202;18.744;2023-01-16T06:56:09;25.13;;;16.00;;
70588;SDS011;58152;49.202;18.744;2023-01-16T06:58:35;23.45;;;16.17;;
70588;SDS011;58152;49.202;18.744;2023-01-16T07:01:00;26.23;;;15.77;;
70588;SDS011;58152;49.202;18.744;2023-01-16T07:03:26;25.45;;;15.70;;
70588;SDS011;58152;49.202;18.744;2023-01-16T07:05:51;22.10;;;14.07;;
70588;SDS011;58152;49.202;18.744;2023-01-16T07:08:16;26.33;;;16.42;;
70588;SDS011;58152;49.202;18.744;2023-01-16T07:10:42;22.98;;;14.32;;
70588;SDS011;58152;49.202;18.744;2023-01-16T07:13:07;24.90;;;15.25;;
70588;SDS011;58152;49.202;18.744;2023-01-16T07:15:35;27.40;;;16.20;;
70588;SDS011;58152;49.202;18.744;2023-01-16T07:18:20;26.17;;;15.75;;
70588;SDS011;58152;49.202;18.744;2023-01-16T07:21:10;22.27;;;13.90;;
70588;SDS011;58152;49.202;18.744;2023-01-16T07:23:57;27.77;;;16.30;;
70588;SDS011;58152;49.202;18.744;2023-01-16T07:26:29;30.25;;;17.45;;
70588;SDS011;58152;49.202;18.744;2023-01-16T07:28:55;31.30;;;18.70;;
70588;SDS011;58152;49.202;18.744;2023-01-16T07:31:22;33.05;;;19.15;;
70588;SDS011;58152;49.202;18.744;2023-01-16T07:33:48;28.40;;;17.05;;
70588;SDS011;58152;49.202;18.744;2023-01-16T07:36:14;29.45;;;18.20;;
70588;SDS011;58152;49.202;18.744;2023-01-16T07:38:39;33.47;;;20.17;;
70588;SDS011;58152;49.202;18.744;2023-01-16T07:41:05;33.92;;;20.75;;
70588;SDS011;58152;49.202;18.744;2023-01-16T07:43:30;30.30;;;18.85;;
70588;SDS011;58152;49.202;18.744;2023-01-16T07:45:55;29.95;;;18.60;;
70588;SDS011;58152;49.202;18.744;2023-01-16T07:48:21;28.55;;;17.45;;
70588;SDS011;58152;49.202;18.744;2023-01-16T07:50:51;29.35;;;19.13;;
70588;SDS011;58152;49.202;18.744;2023-01-16T07:53:18;30.05;;;16.48;;
70588;SDS011;58152;49.202;18.744;2023-01-16T07:55:47;24.98;;;15.85;;
70588;SDS011;58152;49.202;18.744;2023-01-16T07:58:18;24.23;;;15.20;;
70588;SDS011;58152;49.202;18.744;2023-01-16T08:00:43;24.85;;;15.15;;
70588;SDS011;58152;49.202;18.744;2023-01-16T08:03:09;24.98;;;16.23;;
70588;SDS011;58152;49.202;18.744;2023-01-16T08:05:36;25.98;;;15.90;;
70588;SDS011;58152;49.202;18.744;2023-01-16T08:08:01;27.30;;;17.25;;
70588;SDS011;58152;49.202;18.744;2023-01-16T08:10:27;28.50;;;16.90;;
70588;SDS011;58152;49.202;18.744;2023-01-16T08:12:52;29.25;;;17.55;;
70588;SDS011;58152;49.202;18.744;2023-01-16T08:15:18;26.85;;;16.23;;
70588;SDS011;58152;49.202;18.744;2023-01-16T08:17:43;23.55;;;15.43;;
70588;SDS011;58152;49.202;18.744;2023-01-16T08:20:09;21.73;;;14.60;;
70588;SDS011;58152;49.202;18.744;2023-01-16T08:22:35;22.05;;;14.57;;
70588;SDS011;58152;49.202;18.744;2023-01-16T08:25:06;21.50;;;14.57;;
70588;SDS011;58152;49.202;18.744;2023-01-16T08:27:31;23.17;;;14.65;;
70588;SDS011;58152;49.202;18.744;2023-01-16T08:29:57;22.48;;;14.73;;
70588;SDS011;58152;49.202;18.744;2023-01-16T08:32:22;22.10;;;14.75;;
70588;SDS011;58152;49.202;18.744;2023-01-16T08:34:48;19.50;;;13.98;;
70588;SDS011;58152;49.202;18.744;2023-01-16T08:37:14;21.67;;;14.05;;
70588;SDS011;58152;49.202;18.744;2023-01-16T08:39:40;20.95;;;13.70;;
70588;SDS011;58152;49.202;18.744;2023-01-16T08:42:05;19.17;;;13.13;;
70588;SDS011;58152;49.202;18.744;2023-01-16T08:44:49;19.75;;;14.05;;
70588;SDS011;58152;49.202;18.744;2023-01-16T08:47:33;17.67;;;12.15;;
70588;SDS011;58152;49.202;18.744;2023-01-16T08:50:17;21.52;;;14.48;;
70588;SDS011;58152;49.202;18.744;2023-01-16T08:53:03;19.98;;;13.55;;
70588;SDS011;58152;49.202;18.744;2023-01-16T08:55:29;17.00;;;11.85;;
70588;SDS011;58152;49.202;18.744;2023-01-16T08:57:54;17.80;;;12.73;;
70588;SDS011;58152;49.202;18.744;2023-01-16T09:00:22;18.42;;;13.15;;
70588;SDS011;58152;49.202;18.744;2023-01-16T09:02:47;16.13;;;11.65;;
70588;SDS011;58152;49.202;18.744;2023-01-16T09:05:13;16.65;;;12.23;;
70588;SDS011;58152;49.202;18.744;2023-01-16T09:07:38;15.98;;;10.98;;
70588;SDS011;58152;49.202;18.744;2023-01-16T09:10:04;14.77;;;10.57;;
70588;SDS011;58152;49.202;18.744;2023-01-16T09:12:30;61.70;;;39.38;;
70588;SDS011;58152;49.202;18.744;2023-01-16T09:15:14;58.25;;;36.63;;
70588;SDS011;58152;49.202;18.744;2023-01-16T09:17:40;44.53;;;30.23;;
70588;SDS011;58152;49.202;18.744;2023-01-16T09:20:05;29.42;;;20.20;;
70588;SDS011;58152;49.202;18.744;2023-01-16T09:22:31;21.05;;;14.23;;
70588;SDS011;58152;49.202;18.744;2023-01-16T09:24:58;14.52;;;11.32;;
70588;SDS011;58152;49.202;18.744;2023-01-16T09:27:23;13.60;;;10.55;;
70588;SDS011;58152;49.202;18.744;2023-01-16T09:29:49;13.25;;;9.60;;
70588;SDS011;58152;49.202;18.744;2023-01-16T09:32:15;11.70;;;8.82;;
70588;SDS011;58152;49.202;18.744;2023-01-16T09:34:48;13.25;;;8.90;;
70588;SDS011;58152;49.202;18.744;2023-01-16T09:37:13;12.20;;;9.57;;
70588;SDS011;58152;49.202;18.744;2023-01-16T09:39:39;13.35;;;8.70;;
70588;SDS011;58152;49.202;18.744;2023-01-16T09:45:14;9.90;;;8.15;;
70588;SDS011;58152;49.202;18.744;2023-01-16T09:47:43;11.57;;;8.45;;
70588;SDS011;58152;49.202;18.744;2023-01-16T09:53:16;10.05;;;7.32;;
70588;SDS011;58152;49.202;18.744;2023-01-16T09:56:04;9.27;;;7.28;;
70588;SDS011;58152;49.202;18.744;2023-01-16T09:58:55;8.90;;;7.18;;
70588;SDS011;58152;49.202;18.744;2023-01-16T10:01:27;10.27;;;8.07;;
70588;SDS011;58152;49.202;18.744;2023-01-16T10:04:09;10.30;;;7.70;;
70588;SDS011;58152;49.202;18.744;2023-01-16T10:06:40;10.93;;;8.43;;
70588;SDS011;58152;49.202;18.744;2023-01-16T10:10:02;12.20;;;8.32;;
70588;SDS011;58152;49.202;18.744;2023-01-16T10:12:21;10.75;;;7.60;;
70588;SDS011;58152;49.202;18.744;2023-01-16T10:25:26;9.05;;;6.85;;
70588;SDS011;58152;49.202;18.744;2023-01-16T10:30:39;10.27;;;7.90;;
70588;SDS011;58152;49.202;18.744;2023-01-16T10:33:12;10.73;;;7.75;;
70588;SDS011;58152;49.202;18.744;2023-01-16T10:35:48;9.43;;;6.75;;
70588;SDS011;58152;49.202;18.744;2023-01-16T10:41:12;9.30;;;6.80;;
70588;SDS011;58152;49.202;18.744;2023-01-16T10:44:21;9.35;;;6.93;;
70588;SDS011;58152;49.202;18.744;2023-01-16T10:47:16;8.77;;;6.38;;
70588;SDS011;58152;49.202;18.744;2023-01-16T10:50:02;8.60;;;6.47;;
70588;SDS011;58152;49.202;18.744;2023-01-16T10:52:28;9.15;;;6.70;;
70588;SDS011;58152;49.202;18.744;2023-01-16T10:54:55;7.38;;;5.82;;
70588;SDS011;58152;49.202;18.744;2023-01-16T10:57:22;8.20;;;5.00;;
70588;SDS011;58152;49.202;18.744;2023-01-16T10:59:52;7.00;;;5.75;;
70588;SDS011;58152;49.202;18.744;2023-01-16T11:02:25;5.85;;;5.25;;
70588;SDS011;58152;49.202;18.744;2023-01-16T11:04:54;7.72;;;5.50;;
70588;SDS011;58152;49.202;18.744;2023-01-16T11:07:21;7.45;;;6.35;;
70588;SDS011;58152;49.202;18.744;2023-01-16T11:09:47;7.10;;;5.68;;
70588;SDS011;58152;49.202;18.744;2023-01-16T11:12:23;6.40;;;5.07;;
70588;SDS011;58152;49.202;18.744;2023-01-16T11:15:13;6.15;;;4.43;;
70588;SDS011;58152;49.202;18.744;2023-01-16T11:17:59;5.53;;;4.40;;
70588;SDS011;58152;49.202;18.744;2023-01-16T11:20:44;5.22;;;4.05;;
70588;SDS011;58152;49.202;18.744;2023-01-16T11:23:18;3.85;;;3.50;;
70588;SDS011;58152;49.202;18.744;2023-01-16T11:25:48;6.57;;;4.55;;
70588;SDS011;58152;49.202;18.744;2023-01-16T11:28:26;5.45;;;4.50;;
70588;SDS011;58152;49.202;18.744;2023-01-16T11:31:18;5.07;;;4.57;;
70588;SDS011;58152;49.202;18.744;2023-01-16T11:33:48;4.63;;;3.85;;
70588;SDS011;58152;49.202;18.744;2023-01-16T11:36:19;5.38;;;4.18;;
70588;SDS011;58152;49.202;18.744;2023-01-16T11:38:48;6.40;;;4.78;;
70588;SDS011;58152;49.202;18.744;2023-01-16T11:41:22;6.43;;;4.90;;
70588;SDS011;58152;49.202;18.744;2023-01-16T11:47:21;4.75;;;4.28;;
70588;SDS011;58152;49.202;18.744;2023-01-16T11:49:49;6.13;;;4.63;;
70588;SDS011;58152;49.202;18.744;2023-01-16T11:52:16;5.90;;;5.00;;
70588;SDS011;58152;49.202;18.744;2023-01-16T11:55:01;7.15;;;6.03;;
70588;SDS011;58152;49.202;18.744;2023-01-16T12:00:32;6.15;;;5.40;;
70588;SDS011;58152;49.202;18.744;2023-01-16T12:03:17;7.28;;;4.93;;
70588;SDS011;58152;49.202;18.744;2023-01-16T12:09:24;5.57;;;4.53;;
70588;SDS011;58152;49.202;18.744;2023-01-16T12:12:04;7.93;;;5.20;;
70588;SDS011;58152;49.202;18.744;2023-01-16T12:14:59;9.27;;;5.68;;
70588;SDS011;58152;49.202;18.744;2023-01-16T12:17:32;6.60;;;5.70;;
70588;SDS011;58152;49.202;18.744;2023-01-16T12:20:08;6.20;;;5.60;;
70588;SDS011;58152;49.202;18.744;2023-01-16T12:34:11;19.20;;;13.20;;
70588;SDS011;58152;49.202;18.744;2023-01-16T12:47:34;7.68;;;5.75;;
70588;SDS011;58152;49.202;18.744;2023-01-16T12:55:45;7.18;;;5.05;;
70588;SDS011;58152;49.202;18.744;2023-01-16T12:58:26;7.00;;;5.78;;
70588;SDS011;58152;49.202;18.744;2023-01-16T13:07:14;7.18;;;5.25;;
70588;SDS011;58152;49.202;18.744;2023-01-16T13:09:44;6.68;;;5.15;;
70588;SDS011;58152;49.202;18.744;2023-01-16T13:15:34;4.63;;;3.88;;
70588;SDS011;58152;49.202;18.744;2023-01-16T13:20:51;5.90;;;4.40;;
70588;SDS011;58152;49.202;18.744;2023-01-16T13:23:24;6.93;;;5.05;;
70588;SDS011;58152;49.202;18.744;2023-01-16T13:25:53;7.05;;;5.03;;
70588;SDS011;58152;49.202;18.744;2023-01-16T13:28:37;7.38;;;5.55;;
70588;SDS011;58152;49.202;18.744;2023-01-16T13:31:11;8.85;;;5.95;;
70588;SDS011;58152;49.202;18.744;2023-01-16T13:33:55;10.48;;;5.85;;
70588;SDS011;58152;49.202;18.744;2023-01-16T13:42:22;7.00;;;5.20;;
70588;SDS011;58152;49.202;18.744;2023-01-16T13:44:52;7.32;;;5.25;;
70588;SDS011;58152;49.202;18.744;2023-01-16T13:47:41;7.63;;;5.00;;
70588;SDS011;58152;49.202;18.744;2023-01-16T13:50:24;6.22;;;4.32;;
70588;SDS011;58152;49.202;18.744;2023-01-16T13:53:02;6.10;;;4.78;;
70588;SDS011;58152;49.202;18.744;2023-01-16T13:55:36;7.28;;;4.88;;
70588;SDS011;58152;49.202;18.744;2023-01-16T13:58:23;7.80;;;5.60;;
70588;SDS011;58152;49.202;18.744;2023-01-16T14:01:00;7.30;;;5.05;;
70588;SDS011;58152;49.202;18.744;2023-01-16T14:03:30;6.50;;;5.28;;
70588;SDS011;58152;49.202;18.744;2023-01-16T14:06:31;7.68;;;5.88;;
70588;SDS011;58152;49.202;18.744;2023-01-16T14:11:39;5.80;;;4.80;;
70588;SDS011;58152;49.202;18.744;2023-01-16T14:14:29;6.65;;;5.30;;
70588;SDS011;58152;49.202;18.744;2023-01-16T14:17:29;6.88;;;5.38;;
70588;SDS011;58152;49.202;18.744;2023-01-16T14:23:03;7.18;;;6.25;;
70588;SDS011;58152;49.202;18.744;2023-01-16T14:25:50;8.60;;;6.43;;
70588;SDS011;58152;49.202;18.744;2023-01-16T14:28:19;8.35;;;6.30;;
70588;SDS011;58152;49.202;18.744;2023-01-16T14:30:51;8.10;;;6.13;;
70588;SDS011;58152;49.202;18.744;2023-01-16T14:33:17;8.73;;;6.47;;
70588;SDS011;58152;49.202;18.744;2023-01-16T14:35:46;7.53;;;6.13;;
70588;SDS011;58152;49.202;18.744;2023-01-16T14:38:15;8.07;;;5.90;;
70588;SDS011;58152;49.202;18.744;2023-01-16T14:40:48;7.38;;;5.78;;
70588;SDS011;58152;49.202;18.744;2023-01-16T14:43:42;5.88;;;5.07;;
70588;SDS011;58152;49.202;18.744;2023-01-16T14:46:52;7.75;;;5.85;;
70588;SDS011;58152;49.202;18.744;2023-01-16T14:50:09;7.68;;;5.45;;
70588;SDS011;58152;49.202;18.744;2023-01-16T14:55:52;7.22;;;5.50;;
70588;SDS011;58152;49.202;18.744;2023-01-16T15:01:17;10.18;;;6.30;;
70588;SDS011;58152;49.202;18.744;2023-01-16T15:04:05;7.70;;;5.70;;
70588;SDS011;58152;49.202;18.744;2023-01-16T15:06:36;9.18;;;6.95;;
70588;SDS011;58152;49.202;18.744;2023-01-16T15:09:05;8.35;;;6.15;;
70588;SDS011;58152;49.202;18.744;2023-01-16T15:11:39;7.30;;;5.57;;
70588;SDS011;58152;49.202;18.744;2023-01-16T15:17:11;11.07;;;7.65;;
70588;SDS011;58152;49.202;18.744;2023-01-16T15:22:56;11.70;;;7.50;;
70588;SDS011;58152;49.202;18.744;2023-01-16T15:25:38;8.70;;;7.35;;
70588;SDS011;58152;49.202;18.744;2023-01-16T15:31:10;11.18;;;7.82;;
70588;SDS011;58152;49.202;18.744;2023-01-16T15:33:39;9.55;;;7.95;;
70588;SDS011;58152;49.202;18.744;2023-01-16T15:38:55;10.25;;;8.02;;
70588;SDS011;58152;49.202;18.744;2023-01-16T15:41:24;9.70;;;7.78;;
70588;SDS011;58152;49.202;18.744;2023-01-16T15:44:12;9.18;;;7.30;;
70588;SDS011;58152;49.202;18.744;2023-01-16T15:47:03;11.25;;;7.90;;
70588;SDS011;58152;49.202;18.744;2023-01-16T15:52:34;11.48;;;7.88;;
70588;SDS011;58152;49.202;18.744;2023-01-16T15:55:11;10.85;;;7.40;;
70588;SDS011;58152;49.202;18.744;2023-01-16T15:57:45;15.98;;;10.38;;
70588;SDS011;58152;49.202;18.744;2023-01-16T16:00:29;11.65;;;8.68;;
70588;SDS011;58152;49.202;18.744;2023-01-16T16:03:06;13.55;;;8.93;;
70588;SDS011;58152;49.202;18.744;2023-01-16T16:05:39;12.07;;;8.80;;
70588;SDS011;58152;49.202;18.744;2023-01-16T16:08:05;11.13;;;8.20;;
70588;SDS011;58152;49.202;18.744;2023-01-16T16:10:33;13.40;;;8.70;;
70588;SDS011;58152;49.202;18.744;2023-01-16T16:13:20;11.60;;;8.40;;
70588;SDS011;58152;49.202;18.744;2023-01-16T16:15:53;12.63;;;8.60;;
70588;SDS011;58152;49.202;18.744;2023-01-16T16:18:39;12.57;;;8.88;;
70588;SDS011;58152;49.202;18.744;2023-01-16T16:21:15;15.07;;;9.70;;
70588;SDS011;58152;49.202;18.744;2023-01-16T16:23:40;19.33;;;11.57;;
70588;SDS011;58152;49.202;18.744;2023-01-16T16:26:06;18.08;;;11.70;;
70588;SDS011;58152;49.202;18.744;2023-01-16T16:28:39;17.60;;;11.90;;
70588;SDS011;58152;49.202;18.744;2023-01-16T16:31:09;15.63;;;10.80;;
70588;SDS011;58152;49.202;18.744;2023-01-16T16:33:38;11.75;;;9.13;;
70588;SDS011;58152;49.202;18.744;2023-01-16T16:36:05;16.15;;;9.82;;
70588;SDS011;58152;49.202;18.744;2023-01-16T16:38:32;13.02;;;9.15;;
70588;SDS011;58152;49.202;18.744;2023-01-16T16:43:43;11.50;;;9.18;;
70588;SDS011;58152;49.202;18.744;2023-01-16T16:49:26;11.30;;;8.48;;
70588;SDS011;58152;49.202;18.744;2023-01-16T16:51:47;11.80;;;8.30;;
70588;SDS011;58152;49.202;18.744;2023-01-16T16:54:13;12.10;;;8.80;;
70588;SDS011;58152;49.202;18.744;2023-01-16T16:56:46;12.15;;;9.13;;
70588;SDS011;58152;49.202;18.744;2023-01-16T16:59:16;12.98;;;10.40;;
70588;SDS011;58152;49.202;18.744;2023-01-16T17:01:47;16.23;;;11.48;;
70588;SDS011;58152;49.202;18.744;2023-01-16T17:04:15;15.13;;;10.65;;
70588;SDS011;58152;49.202;18.744;2023-01-16T17:06:44;15.80;;;11.30;;
70588;SDS011;58152;49.202;18.744;2023-01-16T17:09:12;18.17;;;12.07;;
70588;SDS011;58152;49.202;18.744;2023-01-16T17:11:39;13.98;;;9.93;;
70588;SDS011;58152;49.202;18.744;2023-01-16T17:14:29;15.00;;;10.38;;
70588;SDS011;58152;49.202;18.744;2023-01-16T17:16:54;13.35;;;9.38;;